VTBD/DMK METAR and TAF weather

Enter ICAO airport designator
Station Type Date Time Source
VTBD METAR 2021/03/09 10:00 UTC NOAA

VTBD 091000Z 17004KT 110V220 9999 FEW020 33/22 Q1010 NOSIG


Station Type Date Time Source
VTBD Decoded METAR 2021/03/09 10:00 UTC NOAA

Don Muang, Thailand (VTBD) 13-55N 100-36E 12M
Mar 09, 2021 - 05:00 AM EST / 2021.03.09 1000 UTC
Wind: from the S (170 degrees) at 5 MPH (4 KT) (direction variable):0
Visibility: greater than 7 mile(s):0
Sky conditions: mostly clear
Temperature: 91 F (33 C)
Heat index: 97.5 F (36.4 C):1
Dew Point: 71 F (22 C)
Relative Humidity: 52%
Pressure (altimeter): 29.83 in. Hg (1010 hPa)
ob: VTBD 091000Z 17004KT 110V220 9999 FEW020 33/22 Q1010 NOSIG
cycle: 10

Station Type Date Time Source
VTBD TAF 2021/03/09 06:36 UTC NOAA

TAF TAF VTBD 090500Z 0906/1012 12005KT 9999 FEW020
BECMG 0912/0914 20005KT

Example: see airport list